sensor_id;sensor_type;location;lat;lon;timestamp;P1;durP1;ratioP1;P2;durP2;ratioP2
32080;SDS011;18593;51.426;7.030;2023-08-07T00:02:02;7.00;;;2.10;;
32080;SDS011;18593;51.426;7.030;2023-08-07T00:04:32;5.32;;;2.50;;
32080;SDS011;18593;51.426;7.030;2023-08-07T00:06:59;5.32;;;1.88;;
32080;SDS011;18593;51.426;7.030;2023-08-07T00:09:27;4.18;;;1.80;;
32080;SDS011;18593;51.426;7.030;2023-08-07T00:11:54;5.32;;;1.98;;
32080;SDS011;18593;51.426;7.030;2023-08-07T00:14:23;6.90;;;3.05;;
32080;SDS011;18593;51.426;7.030;2023-08-07T00:16:50;8.68;;;3.28;;
32080;SDS011;18593;51.426;7.030;2023-08-07T00:19:17;5.55;;;2.45;;
32080;SDS011;18593;51.426;7.030;2023-08-07T00:21:45;8.38;;;2.60;;
32080;SDS011;18593;51.426;7.030;2023-08-07T00:24:12;10.02;;;3.30;;
32080;SDS011;18593;51.426;7.030;2023-08-07T00:26:39;8.05;;;3.20;;
32080;SDS011;18593;51.426;7.030;2023-08-07T00:29:07;10.27;;;3.67;;
32080;SDS011;18593;51.426;7.030;2023-08-07T00:31:35;10.30;;;3.63;;
32080;SDS011;18593;51.426;7.030;2023-08-07T00:34:03;8.77;;;3.30;;
32080;SDS011;18593;51.426;7.030;2023-08-07T00:36:30;9.02;;;3.65;;
32080;SDS011;18593;51.426;7.030;2023-08-07T00:39:00;7.63;;;3.22;;
32080;SDS011;18593;51.426;7.030;2023-08-07T00:41:29;7.88;;;3.47;;
32080;SDS011;18593;51.426;7.030;2023-08-07T00:43:56;11.30;;;3.40;;
32080;SDS011;18593;51.426;7.030;2023-08-07T00:46:23;11.10;;;3.55;;
32080;SDS011;18593;51.426;7.030;2023-08-07T00:48:52;9.27;;;3.10;;
32080;SDS011;18593;51.426;7.030;2023-08-07T00:51:20;10.05;;;2.80;;
32080;SDS011;18593;51.426;7.030;2023-08-07T00:53:49;8.82;;;3.50;;
32080;SDS011;18593;51.426;7.030;2023-08-07T00:56:17;15.88;;;3.00;;
32080;SDS011;18593;51.426;7.030;2023-08-07T00:58:44;8.05;;;2.85;;
32080;SDS011;18593;51.426;7.030;2023-08-07T01:01:11;13.15;;;3.40;;
32080;SDS011;18593;51.426;7.030;2023-08-07T01:03:39;7.13;;;3.00;;
32080;SDS011;18593;51.426;7.030;2023-08-07T01:06:08;11.30;;;4.10;;
32080;SDS011;18593;51.426;7.030;2023-08-07T01:08:35;11.77;;;3.22;;
32080;SDS011;18593;51.426;7.030;2023-08-07T01:11:07;10.05;;;3.30;;
32080;SDS011;18593;51.426;7.030;2023-08-07T01:13:51;12.25;;;3.35;;
32080;SDS011;18593;51.426;7.030;2023-08-07T01:16:26;10.27;;;3.13;;
32080;SDS011;18593;51.426;7.030;2023-08-07T01:19:00;9.10;;;3.08;;
32080;SDS011;18593;51.426;7.030;2023-08-07T01:21:30;11.10;;;3.05;;
32080;SDS011;18593;51.426;7.030;2023-08-07T01:24:00;12.07;;;3.40;;
32080;SDS011;18593;51.426;7.030;2023-08-07T01:26:28;11.55;;;3.42;;
32080;SDS011;18593;51.426;7.030;2023-08-07T01:28:58;9.65;;;3.20;;
32080;SDS011;18593;51.426;7.030;2023-08-07T01:31:34;8.60;;;3.05;;
32080;SDS011;18593;51.426;7.030;2023-08-07T01:34:05;10.65;;;3.33;;
32080;SDS011;18593;51.426;7.030;2023-08-07T01:36:34;10.40;;;2.95;;
32080;SDS011;18593;51.426;7.030;2023-08-07T01:39:06;13.15;;;3.25;;
32080;SDS011;18593;51.426;7.030;2023-08-07T01:41:34;7.35;;;3.17;;
32080;SDS011;18593;51.426;7.030;2023-08-07T01:44:03;10.15;;;4.40;;
32080;SDS011;18593;51.426;7.030;2023-08-07T01:46:31;7.68;;;3.28;;
32080;SDS011;18593;51.426;7.030;2023-08-07T01:48:58;9.43;;;3.72;;
32080;SDS011;18593;51.426;7.030;2023-08-07T01:51:25;8.65;;;3.83;;
32080;SDS011;18593;51.426;7.030;2023-08-07T01:53:53;9.88;;;3.45;;
32080;SDS011;18593;51.426;7.030;2023-08-07T01:56:21;9.43;;;3.50;;
32080;SDS011;18593;51.426;7.030;2023-08-07T01:58:49;10.07;;;3.40;;
32080;SDS011;18593;51.426;7.030;2023-08-07T02:01:17;9.57;;;3.42;;
32080;SDS011;18593;51.426;7.030;2023-08-07T02:03:44;8.90;;;3.38;;
32080;SDS011;18593;51.426;7.030;2023-08-07T02:06:11;9.05;;;3.30;;
32080;SDS011;18593;51.426;7.030;2023-08-07T02:08:39;8.00;;;3.45;;
32080;SDS011;18593;51.426;7.030;2023-08-07T02:11:06;6.60;;;3.30;;
32080;SDS011;18593;51.426;7.030;2023-08-07T02:13:37;7.53;;;3.28;;
32080;SDS011;18593;51.426;7.030;2023-08-07T02:16:05;5.72;;;2.60;;
32080;SDS011;18593;51.426;7.030;2023-08-07T02:18:32;6.47;;;2.63;;
32080;SDS011;18593;51.426;7.030;2023-08-07T02:21:00;8.82;;;2.42;;
32080;SDS011;18593;51.426;7.030;2023-08-07T02:23:28;6.78;;;2.30;;
32080;SDS011;18593;51.426;7.030;2023-08-07T02:25:55;6.82;;;2.05;;
32080;SDS011;18593;51.426;7.030;2023-08-07T02:28:22;8.30;;;2.30;;
32080;SDS011;18593;51.426;7.030;2023-08-07T02:30:51;4.35;;;2.10;;
32080;SDS011;18593;51.426;7.030;2023-08-07T02:33:19;5.80;;;2.00;;
32080;SDS011;18593;51.426;7.030;2023-08-07T02:35:46;4.10;;;1.80;;
32080;SDS011;18593;51.426;7.030;2023-08-07T02:38:15;6.57;;;2.42;;
32080;SDS011;18593;51.426;7.030;2023-08-07T02:40:42;5.93;;;1.80;;
32080;SDS011;18593;51.426;7.030;2023-08-07T02:43:10;5.32;;;2.08;;
32080;SDS011;18593;51.426;7.030;2023-08-07T02:45:37;5.47;;;2.33;;
32080;SDS011;18593;51.426;7.030;2023-08-07T02:48:06;9.45;;;2.97;;
32080;SDS011;18593;51.426;7.030;2023-08-07T02:50:33;7.68;;;2.90;;
32080;SDS011;18593;51.426;7.030;2023-08-07T02:53:02;9.68;;;3.75;;
32080;SDS011;18593;51.426;7.030;2023-08-07T02:55:29;8.93;;;3.63;;
32080;SDS011;18593;51.426;7.030;2023-08-07T02:57:56;11.80;;;4.35;;
32080;SDS011;18593;51.426;7.030;2023-08-07T03:00:23;9.23;;;3.55;;
32080;SDS011;18593;51.426;7.030;2023-08-07T03:02:51;10.27;;;3.38;;
32080;SDS011;18593;51.426;7.030;2023-08-07T03:05:19;6.72;;;3.22;;
32080;SDS011;18593;51.426;7.030;2023-08-07T03:07:47;9.55;;;3.10;;
32080;SDS011;18593;51.426;7.030;2023-08-07T03:10:14;7.53;;;2.88;;
32080;SDS011;18593;51.426;7.030;2023-08-07T03:12:42;10.02;;;2.85;;
32080;SDS011;18593;51.426;7.030;2023-08-07T03:15:09;9.98;;;3.20;;
32080;SDS011;18593;51.426;7.030;2023-08-07T03:17:37;8.73;;;3.10;;
32080;SDS011;18593;51.426;7.030;2023-08-07T03:20:04;5.45;;;2.58;;
32080;SDS011;18593;51.426;7.030;2023-08-07T03:22:34;9.25;;;2.80;;
32080;SDS011;18593;51.426;7.030;2023-08-07T03:25:01;9.93;;;3.25;;
32080;SDS011;18593;51.426;7.030;2023-08-07T03:27:29;9.07;;;4.03;;
32080;SDS011;18593;51.426;7.030;2023-08-07T03:29:56;9.30;;;3.15;;
32080;SDS011;18593;51.426;7.030;2023-08-07T03:32:27;9.82;;;4.00;;
32080;SDS011;18593;51.426;7.030;2023-08-07T03:34:55;9.27;;;5.00;;
32080;SDS011;18593;51.426;7.030;2023-08-07T03:37:23;10.98;;;4.50;;
32080;SDS011;18593;51.426;7.030;2023-08-07T03:39:52;12.10;;;4.22;;
32080;SDS011;18593;51.426;7.030;2023-08-07T03:42:20;10.27;;;4.15;;
32080;SDS011;18593;51.426;7.030;2023-08-07T03:44:47;10.63;;;4.03;;
32080;SDS011;18593;51.426;7.030;2023-08-07T03:47:14;14.30;;;4.68;;
32080;SDS011;18593;51.426;7.030;2023-08-07T03:49:42;12.00;;;4.35;;
32080;SDS011;18593;51.426;7.030;2023-08-07T03:52:09;10.35;;;4.00;;
32080;SDS011;18593;51.426;7.030;2023-08-07T03:54:37;10.48;;;3.85;;
32080;SDS011;18593;51.426;7.030;2023-08-07T03:57:06;12.65;;;4.55;;
32080;SDS011;18593;51.426;7.030;2023-08-07T03:59:34;13.70;;;5.10;;
32080;SDS011;18593;51.426;7.030;2023-08-07T04:02:01;22.55;;;6.82;;
32080;SDS011;18593;51.426;7.030;2023-08-07T04:04:29;14.15;;;6.28;;
32080;SDS011;18593;51.426;7.030;2023-08-07T04:06:56;15.43;;;6.30;;
32080;SDS011;18593;51.426;7.030;2023-08-07T04:09:23;17.10;;;6.70;;
32080;SDS011;18593;51.426;7.030;2023-08-07T04:11:51;15.65;;;5.85;;
32080;SDS011;18593;51.426;7.030;2023-08-07T04:14:19;15.10;;;5.32;;
32080;SDS011;18593;51.426;7.030;2023-08-07T04:16:47;15.70;;;5.05;;
32080;SDS011;18593;51.426;7.030;2023-08-07T04:19:14;14.10;;;4.63;;
32080;SDS011;18593;51.426;7.030;2023-08-07T04:21:41;17.70;;;4.65;;
32080;SDS011;18593;51.426;7.030;2023-08-07T04:24:08;13.82;;;4.65;;
32080;SDS011;18593;51.426;7.030;2023-08-07T04:26:36;16.20;;;4.53;;
32080;SDS011;18593;51.426;7.030;2023-08-07T04:29:05;13.38;;;3.95;;
32080;SDS011;18593;51.426;7.030;2023-08-07T04:31:34;18.13;;;4.60;;
32080;SDS011;18593;51.426;7.030;2023-08-07T04:34:01;16.33;;;5.07;;
32080;SDS011;18593;51.426;7.030;2023-08-07T04:36:28;20.42;;;5.10;;
32080;SDS011;18593;51.426;7.030;2023-08-07T04:38:55;13.50;;;4.65;;
32080;SDS011;18593;51.426;7.030;2023-08-07T04:41:23;14.55;;;4.57;;
32080;SDS011;18593;51.426;7.030;2023-08-07T04:43:50;13.70;;;4.80;;
32080;SDS011;18593;51.426;7.030;2023-08-07T04:46:17;18.30;;;5.25;;
32080;SDS011;18593;51.426;7.030;2023-08-07T04:48:46;24.85;;;4.80;;
32080;SDS011;18593;51.426;7.030;2023-08-07T04:51:13;14.73;;;4.18;;
32080;SDS011;18593;51.426;7.030;2023-08-07T04:53:42;14.63;;;4.28;;
32080;SDS011;18593;51.426;7.030;2023-08-07T04:56:10;19.05;;;4.00;;
32080;SDS011;18593;51.426;7.030;2023-08-07T04:58:37;10.07;;;3.47;;
32080;SDS011;18593;51.426;7.030;2023-08-07T05:01:04;11.48;;;3.50;;
32080;SDS011;18593;51.426;7.030;2023-08-07T05:03:36;16.27;;;3.92;;
32080;SDS011;18593;51.426;7.030;2023-08-07T05:06:05;13.23;;;3.47;;
32080;SDS011;18593;51.426;7.030;2023-08-07T05:08:33;18.17;;;3.50;;
32080;SDS011;18593;51.426;7.030;2023-08-07T05:11:00;12.93;;;3.22;;
32080;SDS011;18593;51.426;7.030;2023-08-07T05:13:28;13.73;;;3.83;;
32080;SDS011;18593;51.426;7.030;2023-08-07T05:15:55;13.98;;;3.47;;
32080;SDS011;18593;51.426;7.030;2023-08-07T05:18:22;15.32;;;4.00;;
32080;SDS011;18593;51.426;7.030;2023-08-07T05:20:49;15.23;;;3.30;;
32080;SDS011;18593;51.426;7.030;2023-08-07T05:23:18;15.38;;;4.00;;
32080;SDS011;18593;51.426;7.030;2023-08-07T05:25:46;15.02;;;3.90;;
32080;SDS011;18593;51.426;7.030;2023-08-07T05:28:14;10.15;;;3.78;;
32080;SDS011;18593;51.426;7.030;2023-08-07T05:30:41;14.27;;;3.60;;
32080;SDS011;18593;51.426;7.030;2023-08-07T05:33:08;12.48;;;3.63;;
32080;SDS011;18593;51.426;7.030;2023-08-07T05:35:37;12.38;;;3.30;;
32080;SDS011;18593;51.426;7.030;2023-08-07T05:38:04;9.98;;;3.40;;
32080;SDS011;18593;51.426;7.030;2023-08-07T05:40:33;9.77;;;2.88;;
32080;SDS011;18593;51.426;7.030;2023-08-07T05:43:01;13.52;;;3.17;;
32080;SDS011;18593;51.426;7.030;2023-08-07T05:45:29;11.15;;;3.28;;
32080;SDS011;18593;51.426;7.030;2023-08-07T05:47:56;7.82;;;2.75;;
32080;SDS011;18593;51.426;7.030;2023-08-07T05:50:23;9.75;;;2.72;;
32080;SDS011;18593;51.426;7.030;2023-08-07T05:52:50;11.85;;;2.97;;
32080;SDS011;18593;51.426;7.030;2023-08-07T05:55:18;9.55;;;3.00;;
32080;SDS011;18593;51.426;7.030;2023-08-07T05:57:46;10.20;;;3.03;;
32080;SDS011;18593;51.426;7.030;2023-08-07T06:00:15;8.65;;;3.08;;
32080;SDS011;18593;51.426;7.030;2023-08-07T06:02:44;6.85;;;2.63;;
32080;SDS011;18593;51.426;7.030;2023-08-07T06:05:12;11.82;;;2.88;;
32080;SDS011;18593;51.426;7.030;2023-08-07T06:07:40;10.27;;;2.85;;
32080;SDS011;18593;51.426;7.030;2023-08-07T06:10:07;9.30;;;2.78;;
32080;SDS011;18593;51.426;7.030;2023-08-07T06:12:35;11.07;;;3.45;;
32080;SDS011;18593;51.426;7.030;2023-08-07T06:15:05;9.63;;;3.00;;
32080;SDS011;18593;51.426;7.030;2023-08-07T06:17:34;9.45;;;3.33;;
32080;SDS011;18593;51.426;7.030;2023-08-07T06:20:01;11.93;;;3.97;;
32080;SDS011;18593;51.426;7.030;2023-08-07T06:22:30;10.32;;;3.97;;
32080;SDS011;18593;51.426;7.030;2023-08-07T06:24:57;10.43;;;3.70;;
32080;SDS011;18593;51.426;7.030;2023-08-07T06:27:25;9.07;;;3.90;;
32080;SDS011;18593;51.426;7.030;2023-08-07T06:29:52;15.27;;;4.90;;
32080;SDS011;18593;51.426;7.030;2023-08-07T06:32:22;11.57;;;4.63;;
32080;SDS011;18593;51.426;7.030;2023-08-07T06:34:49;8.20;;;4.53;;
32080;SDS011;18593;51.426;7.030;2023-08-07T06:37:17;9.90;;;4.45;;
32080;SDS011;18593;51.426;7.030;2023-08-07T06:39:44;11.30;;;5.22;;
32080;SDS011;18593;51.426;7.030;2023-08-07T06:42:12;11.15;;;4.75;;
32080;SDS011;18593;51.426;7.030;2023-08-07T06:44:42;11.50;;;4.95;;
32080;SDS011;18593;51.426;7.030;2023-08-07T06:47:09;11.88;;;4.35;;
32080;SDS011;18593;51.426;7.030;2023-08-07T06:49:38;13.63;;;4.78;;
32080;SDS011;18593;51.426;7.030;2023-08-07T06:52:06;12.98;;;5.05;;
32080;SDS011;18593;51.426;7.030;2023-08-07T06:54:33;12.65;;;4.65;;
32080;SDS011;18593;51.426;7.030;2023-08-07T06:57:01;11.52;;;4.40;;
32080;SDS011;18593;51.426;7.030;2023-08-07T06:59:28;11.45;;;4.18;;
32080;SDS011;18593;51.426;7.030;2023-08-07T07:01:55;9.73;;;4.28;;
32080;SDS011;18593;51.426;7.030;2023-08-07T07:04:22;6.53;;;3.67;;
32080;SDS011;18593;51.426;7.030;2023-08-07T07:06:51;7.85;;;4.10;;
32080;SDS011;18593;51.426;7.030;2023-08-07T07:09:18;11.00;;;3.90;;
32080;SDS011;18593;51.426;7.030;2023-08-07T07:11:45;8.13;;;4.15;;
32080;SDS011;18593;51.426;7.030;2023-08-07T07:14:13;13.35;;;4.03;;
32080;SDS011;18593;51.426;7.030;2023-08-07T07:16:40;10.63;;;4.38;;
32080;SDS011;18593;51.426;7.030;2023-08-07T07:19:08;12.10;;;4.82;;
32080;SDS011;18593;51.426;7.030;2023-08-07T07:21:35;10.45;;;4.45;;
32080;SDS011;18593;51.426;7.030;2023-08-07T07:24:04;12.02;;;4.30;;
32080;SDS011;18593;51.426;7.030;2023-08-07T07:26:32;7.28;;;4.43;;
32080;SDS011;18593;51.426;7.030;2023-08-07T07:28:59;9.88;;;4.50;;
32080;SDS011;18593;51.426;7.030;2023-08-07T07:31:26;13.20;;;4.50;;
32080;SDS011;18593;51.426;7.030;2023-08-07T07:33:54;10.10;;;4.43;;
32080;SDS011;18593;51.426;7.030;2023-08-07T07:36:21;9.70;;;3.90;;
32080;SDS011;18593;51.426;7.030;2023-08-07T07:38:48;9.80;;;4.68;;
32080;SDS011;18593;51.426;7.030;2023-08-07T07:41:17;11.70;;;4.35;;
32080;SDS011;18593;51.426;7.030;2023-08-07T07:43:44;8.02;;;4.55;;
32080;SDS011;18593;51.426;7.030;2023-08-07T07:46:13;8.38;;;4.43;;
32080;SDS011;18593;51.426;7.030;2023-08-07T07:48:40;14.18;;;4.35;;
32080;SDS011;18593;51.426;7.030;2023-08-07T07:51:09;11.18;;;4.30;;
32080;SDS011;18593;51.426;7.030;2023-08-07T07:53:36;9.82;;;4.20;;
32080;SDS011;18593;51.426;7.030;2023-08-07T07:56:03;10.73;;;5.07;;
32080;SDS011;18593;51.426;7.030;2023-08-07T07:58:32;13.82;;;4.35;;
32080;SDS011;18593;51.426;7.030;2023-08-07T08:00:59;10.32;;;3.63;;
32080;SDS011;18593;51.426;7.030;2023-08-07T08:03:27;9.27;;;3.78;;
32080;SDS011;18593;51.426;7.030;2023-08-07T08:05:54;7.28;;;3.83;;
32080;SDS011;18593;51.426;7.030;2023-08-07T08:08:21;10.15;;;3.92;;
32080;SDS011;18593;51.426;7.030;2023-08-07T08:10:48;8.60;;;3.90;;
32080;SDS011;18593;51.426;7.030;2023-08-07T08:13:16;9.80;;;4.15;;
32080;SDS011;18593;51.426;7.030;2023-08-07T08:15:45;12.85;;;4.85;;
32080;SDS011;18593;51.426;7.030;2023-08-07T08:18:12;13.00;;;4.55;;
32080;SDS011;18593;51.426;7.030;2023-08-07T08:20:40;15.65;;;5.13;;
32080;SDS011;18593;51.426;7.030;2023-08-07T08:23:07;16.27;;;5.43;;
32080;SDS011;18593;51.426;7.030;2023-08-07T08:25:34;14.43;;;5.40;;
32080;SDS011;18593;51.426;7.030;2023-08-07T08:28:02;13.38;;;5.05;;
32080;SDS011;18593;51.426;7.030;2023-08-07T08:30:29;13.25;;;5.38;;
32080;SDS011;18593;51.426;7.030;2023-08-07T08:32:58;11.85;;;4.97;;
32080;SDS011;18593;51.426;7.030;2023-08-07T08:35:25;19.02;;;5.60;;
32080;SDS011;18593;51.426;7.030;2023-08-07T08:37:53;13.00;;;5.10;;
32080;SDS011;18593;51.426;7.030;2023-08-07T08:40:20;12.40;;;5.30;;
32080;SDS011;18593;51.426;7.030;2023-08-07T08:42:48;13.02;;;4.70;;
32080;SDS011;18593;51.426;7.030;2023-08-07T08:45:18;12.45;;;5.63;;
32080;SDS011;18593;51.426;7.030;2023-08-07T08:47:48;15.50;;;5.38;;
32080;SDS011;18593;51.426;7.030;2023-08-07T08:50:19;12.73;;;5.53;;
32080;SDS011;18593;51.426;7.030;2023-08-07T08:52:47;13.88;;;6.32;;
32080;SDS011;18593;51.426;7.030;2023-08-07T08:55:17;15.40;;;5.57;;
32080;SDS011;18593;51.426;7.030;2023-08-07T08:57:46;17.30;;;7.18;;
32080;SDS011;18593;51.426;7.030;2023-08-07T09:00:15;16.55;;;6.78;;
32080;SDS011;18593;51.426;7.030;2023-08-07T09:02:45;18.93;;;7.40;;
32080;SDS011;18593;51.426;7.030;2023-08-07T09:05:14;18.05;;;6.10;;
32080;SDS011;18593;51.426;7.030;2023-08-07T09:07:44;15.90;;;5.75;;
32080;SDS011;18593;51.426;7.030;2023-08-07T09:10:12;18.00;;;6.53;;
32080;SDS011;18593;51.426;7.030;2023-08-07T09:12:42;12.77;;;6.10;;
32080;SDS011;18593;51.426;7.030;2023-08-07T09:15:19;20.70;;;6.68;;
32080;SDS011;18593;51.426;7.030;2023-08-07T09:17:48;20.52;;;7.45;;
32080;SDS011;18593;51.426;7.030;2023-08-07T09:20:18;23.52;;;6.95;;
32080;SDS011;18593;51.426;7.030;2023-08-07T09:22:47;21.95;;;7.07;;
32080;SDS011;18593;51.426;7.030;2023-08-07T09:25:24;18.23;;;6.60;;
32080;SDS011;18593;51.426;7.030;2023-08-07T09:28:01;21.45;;;6.93;;
32080;SDS011;18593;51.426;7.030;2023-08-07T09:30:30;16.35;;;6.40;;
32080;SDS011;18593;51.426;7.030;2023-08-07T09:32:59;19.38;;;6.03;;
32080;SDS011;18593;51.426;7.030;2023-08-07T09:35:27;20.40;;;6.35;;
32080;SDS011;18593;51.426;7.030;2023-08-07T09:37:57;19.90;;;5.88;;
32080;SDS011;18593;51.426;7.030;2023-08-07T09:40:25;18.35;;;6.05;;
32080;SDS011;18593;51.426;7.030;2023-08-07T09:42:53;16.17;;;5.00;;
32080;SDS011;18593;51.426;7.030;2023-08-07T09:45:21;14.30;;;5.35;;
32080;SDS011;18593;51.426;7.030;2023-08-07T09:47:57;10.98;;;5.03;;
32080;SDS011;18593;51.426;7.030;2023-08-07T09:50:25;14.27;;;4.80;;
32080;SDS011;18593;51.426;7.030;2023-08-07T09:52:54;14.40;;;4.28;;
32080;SDS011;18593;51.426;7.030;2023-08-07T09:55:24;12.27;;;3.83;;
32080;SDS011;18593;51.426;7.030;2023-08-07T09:57:52;12.30;;;4.28;;
32080;SDS011;18593;51.426;7.030;2023-08-07T10:00:20;12.93;;;4.15;;
32080;SDS011;18593;51.426;7.030;2023-08-07T10:02:48;13.18;;;4.38;;
32080;SDS011;18593;51.426;7.030;2023-08-07T10:05:16;16.13;;;5.00;;
32080;SDS011;18593;51.426;7.030;2023-08-07T10:07:45;16.52;;;4.70;;
32080;SDS011;18593;51.426;7.030;2023-08-07T10:10:13;18.75;;;6.03;;
32080;SDS011;18593;51.426;7.030;2023-08-07T10:12:42;16.25;;;6.53;;
32080;SDS011;18593;51.426;7.030;2023-08-07T10:15:11;19.45;;;7.20;;
32080;SDS011;18593;51.426;7.030;2023-08-07T10:17:39;16.80;;;7.07;;
32080;SDS011;18593;51.426;7.030;2023-08-07T10:20:09;20.75;;;7.25;;
32080;SDS011;18593;51.426;7.030;2023-08-07T10:22:38;19.02;;;6.82;;
32080;SDS011;18593;51.426;7.030;2023-08-07T10:25:06;19.15;;;6.78;;
32080;SDS011;18593;51.426;7.030;2023-08-07T10:27:35;16.50;;;5.78;;
32080;SDS011;18593;51.426;7.030;2023-08-07T10:30:09;24.23;;;6.75;;
32080;SDS011;18593;51.426;7.030;2023-08-07T10:32:40;21.98;;;5.65;;
32080;SDS011;18593;51.426;7.030;2023-08-07T10:35:09;14.80;;;5.55;;
32080;SDS011;18593;51.426;7.030;2023-08-07T10:37:39;21.67;;;6.68;;
32080;SDS011;18593;51.426;7.030;2023-08-07T10:40:08;21.65;;;6.05;;
32080;SDS011;18593;51.426;7.030;2023-08-07T10:42:51;15.68;;;4.68;;
32080;SDS011;18593;51.426;7.030;2023-08-07T10:45:27;19.23;;;5.68;;
32080;SDS011;18593;51.426;7.030;2023-08-07T10:48:01;17.75;;;5.15;;
32080;SDS011;18593;51.426;7.030;2023-08-07T10:50:32;17.70;;;5.40;;
32080;SDS011;18593;51.426;7.030;2023-08-07T10:53:02;17.42;;;5.10;;
32080;SDS011;18593;51.426;7.030;2023-08-07T10:55:42;18.00;;;4.97;;
32080;SDS011;18593;51.426;7.030;2023-08-07T10:58:21;18.05;;;5.57;;
32080;SDS011;18593;51.426;7.030;2023-08-07T11:00:51;13.05;;;4.75;;
32080;SDS011;18593;51.426;7.030;2023-08-07T11:03:35;12.32;;;4.40;;
32080;SDS011;18593;51.426;7.030;2023-08-07T11:06:02;13.55;;;4.93;;
32080;SDS011;18593;51.426;7.030;2023-08-07T11:08:30;18.17;;;5.35;;
32080;SDS011;18593;51.426;7.030;2023-08-07T11:10:59;17.15;;;5.30;;
32080;SDS011;18593;51.426;7.030;2023-08-07T11:13:32;16.95;;;5.53;;
32080;SDS011;18593;51.426;7.030;2023-08-07T11:16:02;19.73;;;6.00;;
32080;SDS011;18593;51.426;7.030;2023-08-07T11:18:30;19.90;;;6.50;;
32080;SDS011;18593;51.426;7.030;2023-08-07T11:21:00;19.58;;;6.88;;
32080;SDS011;18593;51.426;7.030;2023-08-07T11:23:28;25.10;;;7.30;;
32080;SDS011;18593;51.426;7.030;2023-08-07T11:25:55;22.00;;;7.70;;
32080;SDS011;18593;51.426;7.030;2023-08-07T11:28:23;20.38;;;7.40;;
32080;SDS011;18593;51.426;7.030;2023-08-07T11:30:51;25.75;;;8.32;;
32080;SDS011;18593;51.426;7.030;2023-08-07T11:33:22;25.25;;;7.82;;
32080;SDS011;18593;51.426;7.030;2023-08-07T11:35:51;22.98;;;8.32;;
32080;SDS011;18593;51.426;7.030;2023-08-07T11:38:32;19.10;;;7.82;;
32080;SDS011;18593;51.426;7.030;2023-08-07T11:41:02;23.15;;;6.80;;
32080;SDS011;18593;51.426;7.030;2023-08-07T11:43:31;24.25;;;8.02;;
32080;SDS011;18593;51.426;7.030;2023-08-07T11:46:00;18.60;;;6.82;;
32080;SDS011;18593;51.426;7.030;2023-08-07T11:48:31;26.10;;;6.20;;
32080;SDS011;18593;51.426;7.030;2023-08-07T11:50:59;16.27;;;5.72;;
32080;SDS011;18593;51.426;7.030;2023-08-07T11:53:31;14.60;;;4.80;;
32080;SDS011;18593;51.426;7.030;2023-08-07T11:56:07;14.10;;;4.47;;
32080;SDS011;18593;51.426;7.030;2023-08-07T11:58:37;14.05;;;4.80;;
32080;SDS011;18593;51.426;7.030;2023-08-07T12:01:06;14.23;;;5.65;;
32080;SDS011;18593;51.426;7.030;2023-08-07T12:03:38;20.00;;;4.95;;
32080;SDS011;18593;51.426;7.030;2023-08-07T12:06:09;22.25;;;4.80;;
32080;SDS011;18593;51.426;7.030;2023-08-07T12:08:36;21.08;;;5.28;;
32080;SDS011;18593;51.426;7.030;2023-08-07T12:11:05;11.13;;;4.80;;
32080;SDS011;18593;51.426;7.030;2023-08-07T12:13:36;15.90;;;4.85;;
32080;SDS011;18593;51.426;7.030;2023-08-07T12:16:05;16.20;;;4.70;;
32080;SDS011;18593;51.426;7.030;2023-08-07T12:18:33;15.73;;;4.85;;
32080;SDS011;18593;51.426;7.030;2023-08-07T12:21:06;13.65;;;3.28;;
32080;SDS011;18593;51.426;7.030;2023-08-07T12:23:34;14.88;;;4.03;;
32080;SDS011;18593;51.426;7.030;2023-08-07T12:26:02;12.85;;;3.60;;
32080;SDS011;18593;51.426;7.030;2023-08-07T12:28:32;13.13;;;3.63;;
32080;SDS011;18593;51.426;7.030;2023-08-07T12:31:00;15.70;;;3.63;;
32080;SDS011;18593;51.426;7.030;2023-08-07T12:33:28;13.50;;;4.05;;
32080;SDS011;18593;51.426;7.030;2023-08-07T12:35:57;12.52;;;3.00;;
32080;SDS011;18593;51.426;7.030;2023-08-07T12:38:25;14.45;;;3.78;;
32080;SDS011;18593;51.426;7.030;2023-08-07T12:40:53;13.95;;;3.70;;
32080;SDS011;18593;51.426;7.030;2023-08-07T12:43:20;13.85;;;3.78;;
32080;SDS011;18593;51.426;7.030;2023-08-07T12:45:48;13.73;;;3.45;;
32080;SDS011;18593;51.426;7.030;2023-08-07T12:48:15;10.77;;;3.28;;
32080;SDS011;18593;51.426;7.030;2023-08-07T12:50:43;11.77;;;3.58;;
32080;SDS011;18593;51.426;7.030;2023-08-07T12:53:12;12.50;;;3.35;;
32080;SDS011;18593;51.426;7.030;2023-08-07T12:55:39;12.30;;;3.42;;
32080;SDS011;18593;51.426;7.030;2023-08-07T12:58:06;13.18;;;3.00;;
32080;SDS011;18593;51.426;7.030;2023-08-07T13:00:34;14.60;;;2.78;;
32080;SDS011;18593;51.426;7.030;2023-08-07T13:03:01;12.23;;;2.78;;
32080;SDS011;18593;51.426;7.030;2023-08-07T13:05:28;9.45;;;3.13;;
32080;SDS011;18593;51.426;7.030;2023-08-07T13:07:56;10.45;;;2.97;;
32080;SDS011;18593;51.426;7.030;2023-08-07T13:10:25;11.32;;;2.75;;
32080;SDS011;18593;51.426;7.030;2023-08-07T13:12:56;10.48;;;3.35;;
32080;SDS011;18593;51.426;7.030;2023-08-07T13:15:24;9.95;;;3.08;;
32080;SDS011;18593;51.426;7.030;2023-08-07T13:17:51;9.93;;;3.17;;
32080;SDS011;18593;51.426;7.030;2023-08-07T13:20:19;8.50;;;2.92;;
32080;SDS011;18593;51.426;7.030;2023-08-07T13:22:46;11.57;;;3.17;;
32080;SDS011;18593;51.426;7.030;2023-08-07T13:25:13;10.40;;;2.72;;
32080;SDS011;18593;51.426;7.030;2023-08-07T13:27:42;11.10;;;2.53;;
32080;SDS011;18593;51.426;7.030;2023-08-07T13:30:10;10.40;;;3.00;;
32080;SDS011;18593;51.426;7.030;2023-08-07T13:32:37;6.93;;;2.55;;
32080;SDS011;18593;51.426;7.030;2023-08-07T13:35:05;7.45;;;2.40;;
32080;SDS011;18593;51.426;7.030;2023-08-07T13:37:34;8.90;;;2.72;;
32080;SDS011;18593;51.426;7.030;2023-08-07T13:40:03;8.40;;;2.42;;
32080;SDS011;18593;51.426;7.030;2023-08-07T13:42:33;12.95;;;2.67;;
32080;SDS011;18593;51.426;7.030;2023-08-07T13:45:01;7.43;;;2.42;;
32080;SDS011;18593;51.426;7.030;2023-08-07T13:47:32;8.77;;;2.25;;
32080;SDS011;18593;51.426;7.030;2023-08-07T13:50:00;8.45;;;2.60;;
32080;SDS011;18593;51.426;7.030;2023-08-07T13:52:28;12.85;;;2.50;;
32080;SDS011;18593;51.426;7.030;2023-08-07T13:54:55;9.77;;;2.47;;
32080;SDS011;18593;51.426;7.030;2023-08-07T13:57:22;6.25;;;2.03;;
32080;SDS011;18593;51.426;7.030;2023-08-07T13:59:50;7.40;;;2.15;;
32080;SDS011;18593;51.426;7.030;2023-08-07T14:02:20;9.70;;;2.45;;
32080;SDS011;18593;51.426;7.030;2023-08-07T14:04:48;9.45;;;2.33;;
32080;SDS011;18593;51.426;7.030;2023-08-07T14:07:15;8.82;;;2.65;;
32080;SDS011;18593;51.426;7.030;2023-08-07T14:09:43;9.02;;;2.95;;
32080;SDS011;18593;51.426;7.030;2023-08-07T14:12:10;7.93;;;2.50;;
32080;SDS011;18593;51.426;7.030;2023-08-07T14:14:37;10.93;;;3.05;;
32080;SDS011;18593;51.426;7.030;2023-08-07T14:17:05;7.65;;;2.60;;
32080;SDS011;18593;51.426;7.030;2023-08-07T14:19:34;9.40;;;2.88;;
32080;SDS011;18593;51.426;7.030;2023-08-07T14:22:01;12.93;;;4.13;;
32080;SDS011;18593;51.426;7.030;2023-08-07T14:24:29;9.15;;;3.03;;
32080;SDS011;18593;51.426;7.030;2023-08-07T14:26:56;6.88;;;2.10;;
32080;SDS011;18593;51.426;7.030;2023-08-07T14:29:23;8.05;;;2.65;;
32080;SDS011;18593;51.426;7.030;2023-08-07T14:31:51;9.82;;;2.65;;
32080;SDS011;18593;51.426;7.030;2023-08-07T14:34:18;10.63;;;2.33;;
32080;SDS011;18593;51.426;7.030;2023-08-07T14:36:47;8.70;;;2.20;;
32080;SDS011;18593;51.426;7.030;2023-08-07T14:39:14;5.78;;;2.25;;
32080;SDS011;18593;51.426;7.030;2023-08-07T14:41:43;8.65;;;2.20;;
32080;SDS011;18593;51.426;7.030;2023-08-07T14:44:10;8.93;;;2.15;;
32080;SDS011;18593;51.426;7.030;2023-08-07T14:46:37;6.30;;;2.00;;